Edmonton, Canada
Current Conditions -  °F | °C
As of 7:00 PM on Monday 24 Nov 2014 (Local Time) from CYXD Reporting Station
Broken Clouds Broken Clouds  
Wind Chill: 25°   Ceiling: 7800
Heat Index: 32°   Visibility: 9mi
Dew Point: 25°   Wind: 8mph
Humidity: 75%   Direction: 170°S
Pressure: 29.73"   Gusts: NA
Location:  53.55°N, 113.49°W
Report Text: CYXD 250200Z AUTO 17007KT 9SM BKN078 00/M04 A2973 RMK SLP096
Loading
Personal Weather Stations






























Interactive Weather Map New forecast layout! Learn more

10-Day Weather Forecast

Advertisements
Track Severe Weather on mobile